Aviation Digital Data Service (ADDS)

Output produced by METARs form (1035 UTC 07 December 2016)
found at http://aviationweather.gov/adds/metars/
 
KTOL 070539Z 0706/0806 27010KT 6SM BR BKN025 
     TEMPO 0708/0712 5SM BR SCT025 
     FM071200 24010KT P6SM SCT025 BKN150